createdAt,value
2019-01-06T00:01:07.306Z,5.20
2019-01-06T00:04:01.218Z,5.80
2019-01-06T00:07:01.227Z,4.43
2019-01-06T00:09:39.968Z,5.90
2019-01-06T00:12:27.718Z,5.53
2019-01-06T00:15:15.424Z,5.80
2019-01-06T00:18:06.692Z,5.73
2019-01-06T00:21:13.375Z,6.10
2019-01-06T00:24:00.015Z,6.13
2019-01-06T00:26:41.108Z,5.73
2019-01-06T00:29:29.472Z,5.93
2019-01-06T00:32:17.079Z,7.13
2019-01-06T00:35:12.300Z,6.20
2019-01-06T00:37:59.507Z,6.53
2019-01-06T00:40:50.545Z,5.83
2019-01-06T00:43:29.376Z,5.73
2019-01-06T00:46:12.467Z,6.40
2019-01-06T00:49:10.842Z,6.12
2019-01-06T00:52:05.092Z,5.70
2019-01-06T00:55:16.029Z,6.15
2019-01-06T00:58:02.799Z,4.77
2019-01-06T01:01:02.609Z,5.77
2019-01-06T01:03:53.500Z,5.03
2019-01-06T01:06:52.716Z,4.77
2019-01-06T01:10:05.551Z,5.20
2019-01-06T01:12:53.472Z,3.70
2019-01-06T01:15:41.558Z,4.57
2019-01-06T01:18:32.844Z,4.60
2019-01-06T01:21:24.398Z,4.30
2019-01-06T01:24:15.555Z,5.10
2019-01-06T01:27:12.703Z,4.10
2019-01-06T01:29:59.200Z,4.40
2019-01-06T01:32:48.983Z,3.60
2019-01-06T01:35:47.049Z,3.90
2019-01-06T01:38:33.783Z,4.10
2019-01-06T01:41:25.483Z,3.30
2019-01-06T01:44:19.780Z,3.23
2019-01-06T01:47:23.857Z,3.60
2019-01-06T01:50:10.539Z,3.33
2019-01-06T01:53:01.294Z,3.50
2019-01-06T01:55:45.008Z,3.20
2019-01-06T01:58:43.076Z,3.80
2019-01-06T02:01:31.069Z,3.10
2019-01-06T02:04:18.120Z,4.00
2019-01-06T02:07:12.063Z,3.87
2019-01-06T02:09:54.514Z,3.20
2019-01-06T02:12:41.367Z,4.40
2019-01-06T02:15:31.036Z,4.00
2019-01-06T02:18:29.193Z,4.70
2019-01-06T02:21:11.478Z,4.47
2019-01-06T02:24:00.205Z,4.70
2019-01-06T02:26:51.541Z,4.67
2019-01-06T02:29:31.879Z,5.20
2019-01-06T02:32:24.566Z,3.60
2019-01-06T02:35:06.825Z,5.10
2019-01-06T02:37:54.039Z,3.87
2019-01-06T02:40:41.027Z,4.47
2019-01-06T02:43:27.924Z,4.33
2019-01-06T02:46:21.411Z,3.53
2019-01-06T02:49:09.876Z,4.20
2019-01-06T02:51:57.123Z,3.53
2019-01-06T02:54:44.883Z,3.80
2019-01-06T02:57:31.912Z,3.47
2019-01-06T03:00:18.801Z,3.70
2019-01-06T03:03:06.827Z,4.13
2019-01-06T03:05:54.655Z,3.17
2019-01-06T03:08:54.998Z,3.40
2019-01-06T03:11:41.065Z,2.90
2019-01-06T03:14:27.483Z,3.53
2019-01-06T03:17:06.824Z,3.53
2019-01-06T03:19:58.132Z,4.00
2019-01-06T03:22:52.155Z,3.40
2019-01-06T03:25:38.604Z,3.20
2019-01-06T03:28:34.359Z,2.63
2019-01-06T03:31:31.667Z,2.80
2019-01-06T03:34:29.184Z,2.87
2019-01-06T03:37:16.497Z,2.40
2019-01-06T03:39:56.684Z,2.67
2019-01-06T03:42:43.698Z,2.07
2019-01-06T03:45:35.164Z,3.30
2019-01-06T03:48:32.510Z,2.60
2019-01-06T03:51:20.436Z,2.20
2019-01-06T03:54:08.595Z,2.27
2019-01-06T03:56:55.734Z,3.07
2019-01-06T03:59:42.305Z,2.60
2019-01-06T04:02:29.319Z,2.80
2019-01-06T04:05:16.167Z,2.40
2019-01-06T04:08:13.383Z,2.50
2019-01-06T04:11:01.395Z,2.67
2019-01-06T04:13:48.407Z,1.90
2019-01-06T04:16:30.652Z,2.47
2019-01-06T04:19:15.993Z,2.60
2019-01-06T04:22:19.466Z,2.13
2019-01-06T04:25:15.245Z,2.13
2019-01-06T04:28:03.645Z,2.03
2019-01-06T04:30:51.697Z,1.77
2019-01-06T04:33:51.739Z,2.00
2019-01-06T04:36:58.349Z,1.90
2019-01-06T04:39:40.974Z,2.17
2019-01-06T04:42:30.060Z,2.50
2019-01-06T04:45:23.719Z,2.53
2019-01-06T04:48:10.612Z,1.83
2019-01-06T04:51:14.108Z,1.85
2019-01-06T04:54:01.696Z,2.40
2019-01-06T04:57:00.913Z,2.40
2019-01-06T04:59:59.711Z,2.08
2019-01-06T05:02:46.605Z,2.10
2019-01-06T05:05:45.400Z,2.50
2019-01-06T05:08:33.289Z,2.40
2019-01-06T05:11:21.347Z,2.97
2019-01-06T05:14:25.200Z,2.53
2019-01-06T05:17:28.482Z,2.43
2019-01-06T05:20:34.995Z,2.15
2019-01-06T05:23:21.859Z,3.30
2019-01-06T05:26:08.572Z,3.10
2019-01-06T05:28:58.909Z,3.03
2019-01-06T05:31:50.217Z,3.07
2019-01-06T05:34:46.222Z,3.23
2019-01-06T05:37:40.756Z,3.45
2019-01-06T05:40:28.055Z,2.80
2019-01-06T05:43:15.066Z,2.75
2019-01-06T05:46:01.752Z,3.43
2019-01-06T05:48:48.514Z,2.60
2019-01-06T05:51:36.572Z,3.77
2019-01-06T05:54:33.706Z,3.15
2019-01-06T05:57:15.824Z,3.70
2019-01-06T06:00:09.387Z,3.15
2019-01-06T06:02:57.379Z,3.33
2019-01-06T06:05:44.152Z,3.77
2019-01-06T06:08:47.667Z,4.10
2019-01-06T06:11:34.503Z,3.50
2019-01-06T06:14:21.403Z,4.30
2019-01-06T06:17:19.078Z,3.80
2019-01-06T06:20:05.570Z,3.57
2019-01-06T06:22:58.687Z,3.77
2019-01-06T06:26:01.854Z,4.90
2019-01-06T06:28:48.589Z,3.90
2019-01-06T06:31:43.864Z,4.70
2019-01-06T06:34:30.391Z,4.15
2019-01-06T06:37:13.610Z,4.12
2019-01-06T06:40:02.339Z,4.73
2019-01-06T06:42:50.520Z,6.00
2019-01-06T06:45:44.561Z,4.30
2019-01-06T06:48:34.617Z,5.12
2019-01-06T06:51:25.819Z,4.80
2019-01-06T06:54:20.258Z,5.10
2019-01-06T06:57:48.253Z,4.80
2019-01-06T07:01:02.978Z,4.40
2019-01-06T07:04:05.842Z,4.33
2019-01-06T07:06:52.704Z,5.40
2019-01-06T07:09:55.622Z,5.40
2019-01-06T07:12:59.349Z,4.33
2019-01-06T07:15:59.637Z,4.63
2019-01-06T07:18:47.615Z,5.03
2019-01-06T07:21:34.465Z,4.20
2019-01-06T07:24:34.698Z,4.80
2019-01-06T07:27:21.637Z,4.50
2019-01-06T07:30:10.026Z,4.73
2019-01-06T07:33:09.975Z,5.08
2019-01-06T07:35:51.053Z,4.50
2019-01-06T07:38:38.263Z,4.07
2019-01-06T07:41:35.767Z,5.83
2019-01-06T07:44:22.742Z,4.75
2019-01-06T07:47:26.275Z,5.53
2019-01-06T07:50:17.386Z,5.00
2019-01-06T07:52:58.912Z,4.67
2019-01-06T07:55:56.998Z,3.83
2019-01-06T07:59:03.410Z,4.60
2019-01-06T08:01:50.810Z,4.13
2019-01-06T08:04:37.606Z,4.77
2019-01-06T08:07:31.605Z,4.57
2019-01-06T08:10:19.213Z,4.95
2019-01-06T08:13:05.895Z,4.17
2019-01-06T08:15:53.605Z,4.83
2019-01-06T08:18:44.334Z,4.10
2019-01-06T08:21:31.257Z,3.67
2019-01-06T08:24:19.727Z,3.77
2019-01-06T08:27:08.046Z,5.20
2019-01-06T08:29:54.178Z,4.67
2019-01-06T08:32:40.856Z,4.27
2019-01-06T08:35:35.128Z,4.60
2019-01-06T08:38:29.392Z,3.50
2019-01-06T08:41:23.459Z,3.47
2019-01-06T08:44:19.272Z,4.20
2019-01-06T08:47:06.948Z,4.77
2019-01-06T08:50:01.366Z,4.20
2019-01-06T08:52:43.161Z,3.60
2019-01-06T08:55:31.858Z,3.53
2019-01-06T08:58:19.999Z,4.07
2019-01-06T09:01:20.198Z,3.53
2019-01-06T09:04:10.957Z,4.40
2019-01-06T09:06:59.424Z,4.27
2019-01-06T09:10:02.630Z,3.60
2019-01-06T09:12:49.467Z,3.43
2019-01-06T09:15:55.854Z,3.17
2019-01-06T09:18:56.755Z,3.92
2019-01-06T09:21:50.459Z,3.10
2019-01-06T09:24:37.337Z,3.20
2019-01-06T09:27:23.879Z,2.50
2019-01-06T09:30:22.411Z,3.10
2019-01-06T09:33:05.106Z,2.97
2019-01-06T09:35:59.031Z,3.70
2019-01-06T09:38:50.266Z,3.13
2019-01-06T09:41:33.411Z,3.27
2019-01-06T09:44:36.557Z,3.13
2019-01-06T09:47:15.687Z,3.10
2019-01-06T09:50:02.611Z,2.70
2019-01-06T09:52:43.004Z,2.90
2019-01-06T09:55:49.353Z,3.10
2019-01-06T09:58:40.341Z,4.00
2019-01-06T10:01:37.331Z,4.00
2019-01-06T10:04:24.287Z,3.30
2019-01-06T10:07:09.843Z,3.40
2019-01-06T10:09:57.143Z,3.43
2019-01-06T10:12:46.078Z,3.30
2019-01-06T10:15:49.815Z,2.50
2019-01-06T10:18:36.304Z,3.00
2019-01-06T10:21:20.654Z,3.10
2019-01-06T10:24:00.692Z,3.60
2019-01-06T10:26:40.428Z,2.90
2019-01-06T10:29:47.002Z,3.50
2019-01-06T10:32:34.908Z,2.80
2019-01-06T10:35:36.774Z,2.90
2019-01-06T10:38:36.847Z,2.43
2019-01-06T10:41:22.137Z,2.77
2019-01-06T10:44:05.167Z,2.60
2019-01-06T10:46:52.383Z,2.37
2019-01-06T10:49:39.180Z,2.70
2019-01-06T10:52:20.917Z,3.00
2019-01-06T10:55:07.331Z,3.27
2019-01-06T10:57:55.909Z,2.97
2019-01-06T11:00:42.724Z,2.33
2019-01-06T11:03:49.929Z,2.53
2019-01-06T11:06:44.778Z,2.77
2019-01-06T11:09:53.789Z,2.90
2019-01-06T11:12:41.395Z,3.03
2019-01-06T11:15:30.780Z,2.53
2019-01-06T11:18:30.289Z,2.13
2019-01-06T11:21:23.020Z,2.63
2019-01-06T11:24:12.075Z,2.30
2019-01-06T11:27:26.731Z,3.37
2019-01-06T11:30:16.054Z,2.73
2019-01-06T11:33:20.161Z,3.33
2019-01-06T11:36:17.081Z,1.60
2019-01-06T11:39:10.332Z,2.27
2019-01-06T11:42:24.249Z,2.10
2019-01-06T11:45:05.847Z,2.77
2019-01-06T11:48:03.186Z,1.97
2019-01-06T11:54:13.229Z,2.40
2019-01-06T11:57:20.408Z,2.10
2019-01-06T12:00:34.664Z,4.83
2019-01-06T12:03:40.776Z,2.77
2019-01-06T12:06:35.435Z,2.30
2019-01-06T12:09:28.137Z,2.53
2019-01-06T12:12:21.101Z,2.50
2019-01-06T12:15:36.098Z,1.90
2019-01-06T12:18:38.353Z,3.90
2019-01-06T12:21:55.212Z,1.80
2019-01-06T12:24:47.286Z,3.30
2019-01-06T12:27:54.392Z,4.47
2019-01-06T12:31:01.666Z,2.00
2019-01-06T12:37:26.744Z,2.10
2019-01-06T12:40:25.862Z,2.40
2019-01-06T12:43:21.422Z,2.80
2019-01-06T12:46:04.528Z,2.10
2019-01-06T12:49:05.034Z,2.40
2019-01-06T12:51:52.966Z,1.90
2019-01-06T12:54:50.126Z,2.13
2019-01-06T12:57:44.186Z,2.43
2019-01-06T13:00:42.281Z,2.60
2019-01-06T13:03:30.411Z,2.00
2019-01-06T13:06:16.158Z,2.60
2019-01-06T13:09:04.995Z,3.27
2019-01-06T13:11:52.100Z,3.40
2019-01-06T13:15:00.208Z,2.43
2019-01-06T13:17:47.107Z,4.73
2019-01-06T13:20:33.775Z,2.23
2019-01-06T13:23:23.332Z,2.00
2019-01-06T13:26:10.143Z,2.60
2019-01-06T13:29:05.885Z,2.20
2019-01-06T13:31:52.964Z,2.30
2019-01-06T13:34:44.283Z,2.23
2019-01-06T13:37:38.296Z,2.70
2019-01-06T13:40:21.163Z,2.40
2019-01-06T13:43:09.367Z,2.50
2019-01-06T13:46:00.214Z,2.20
2019-01-06T13:48:52.128Z,2.20
2019-01-06T13:51:43.996Z,2.00
2019-01-06T13:54:50.063Z,2.67
2019-01-06T13:57:37.153Z,2.70
2019-01-06T14:00:25.812Z,3.10
2019-01-06T14:03:13.772Z,2.70
2019-01-06T14:06:17.536Z,4.17
2019-01-06T14:09:03.968Z,2.90
2019-01-06T14:12:04.281Z,2.90
2019-01-06T14:15:01.884Z,3.10
2019-01-06T14:17:59.071Z,2.50
2019-01-06T14:20:56.697Z,3.03
2019-01-06T14:23:44.479Z,4.93
2019-01-06T14:26:35.463Z,3.63
2019-01-06T14:29:23.912Z,2.85
2019-01-06T14:32:18.375Z,3.27
2019-01-06T14:35:05.339Z,3.80
2019-01-06T14:38:00.304Z,4.83
2019-01-06T14:40:46.772Z,5.67
2019-01-06T14:43:34.557Z,3.85
2019-01-06T14:46:22.019Z,5.03
2019-01-06T14:49:09.115Z,7.40
2019-01-06T14:51:56.119Z,5.17
2019-01-06T14:54:43.130Z,6.25
2019-01-06T14:57:22.564Z,6.62
2019-01-06T15:00:13.840Z,5.70
2019-01-06T15:03:13.084Z,5.10
2019-01-06T15:05:59.571Z,6.45
2019-01-06T15:08:53.910Z,7.03
2019-01-06T15:11:41.930Z,6.22
2019-01-06T15:14:47.858Z,4.97
2019-01-06T15:17:34.582Z,6.15
2019-01-06T15:20:25.614Z,4.97
2019-01-06T15:23:15.492Z,4.20
2019-01-06T15:26:02.254Z,3.10
2019-01-06T15:29:04.528Z,3.50
2019-01-06T15:31:51.455Z,3.20
2019-01-06T15:34:39.401Z,2.65
2019-01-06T15:37:27.707Z,3.50
2019-01-06T15:40:14.932Z,2.87
2019-01-06T15:43:01.443Z,3.30
2019-01-06T15:45:55.570Z,3.92
2019-01-06T15:48:42.058Z,3.70
2019-01-06T15:51:36.353Z,7.67
2019-01-06T15:54:24.488Z,10.20
2019-01-06T15:57:11.409Z,4.80
2019-01-06T15:59:58.539Z,5.28
2019-01-06T16:02:49.548Z,4.40
2019-01-06T16:05:49.856Z,4.85
2019-01-06T16:08:36.312Z,5.12
2019-01-06T16:11:23.169Z,5.97
2019-01-06T16:14:20.348Z,6.10
2019-01-06T16:17:14.941Z,4.97
2019-01-06T16:20:01.929Z,5.60
2019-01-06T16:22:48.906Z,5.25
2019-01-06T16:25:35.774Z,4.37
2019-01-06T16:28:34.928Z,4.97
2019-01-06T16:31:31.743Z,4.17
2019-01-06T16:34:31.973Z,4.37
2019-01-06T16:37:22.918Z,4.20
2019-01-06T16:40:10.467Z,3.98
2019-01-06T16:42:48.532Z,3.75
2019-01-06T16:45:35.952Z,6.65
2019-01-06T16:48:24.328Z,6.42
2019-01-06T16:51:15.635Z,4.58
2019-01-06T16:54:06.991Z,5.70
2019-01-06T16:56:54.386Z,5.35
2019-01-06T16:59:42.638Z,6.65
2019-01-06T17:02:34.922Z,5.55
2019-01-06T17:05:21.941Z,6.62
2019-01-06T17:08:12.896Z,9.93
2019-01-06T17:11:01.339Z,6.70
2019-01-06T17:14:01.888Z,8.28
2019-01-06T17:17:05.375Z,6.55
2019-01-06T17:19:52.336Z,7.12
2019-01-06T17:22:41.373Z,7.05
2019-01-06T17:25:35.627Z,9.13
2019-01-06T17:28:41.863Z,14.65
2019-01-06T17:31:33.213Z,9.48
2019-01-06T17:34:35.033Z,7.50
2019-01-06T17:37:18.997Z,9.27
2019-01-06T17:40:13.215Z,7.97
2019-01-06T17:42:54.847Z,8.00
2019-01-06T17:45:42.347Z,6.50
2019-01-06T17:48:30.478Z,7.87
2019-01-06T17:51:22.167Z,7.83
2019-01-06T17:54:13.667Z,8.88
2019-01-06T17:56:56.932Z,9.75
2019-01-06T17:59:45.084Z,8.70
2019-01-06T18:02:32.084Z,8.63
2019-01-06T18:05:24.656Z,12.10
2019-01-06T18:08:24.529Z,9.68
2019-01-06T18:11:13.610Z,9.55
2019-01-06T18:14:10.302Z,10.30
2019-01-06T18:16:56.130Z,9.68
2019-01-06T18:19:46.681Z,8.63
2019-01-06T18:22:37.908Z,10.03
2019-01-06T18:28:14.235Z,10.70
2019-01-06T18:30:57.296Z,29.12
2019-01-06T18:33:57.257Z,11.38
2019-01-06T18:36:46.116Z,15.60
2019-01-06T18:39:52.461Z,11.90
2019-01-06T18:42:39.211Z,9.80
2019-01-06T18:45:30.107Z,10.25
2019-01-06T18:48:16.482Z,9.00
2019-01-06T18:50:55.270Z,11.65
2019-01-06T18:53:46.105Z,10.50
2019-01-06T18:56:46.131Z,11.43
2019-01-06T18:59:28.206Z,14.87
2019-01-06T19:02:28.539Z,13.38
2019-01-06T19:05:12.450Z,10.40
2019-01-06T19:08:00.434Z,10.35
2019-01-06T19:10:37.582Z,11.48
2019-01-06T19:13:40.999Z,8.70
2019-01-06T19:16:27.744Z,8.43
2019-01-06T19:19:15.639Z,9.30
2019-01-06T19:22:19.091Z,11.00
2019-01-06T19:25:05.734Z,10.10
2019-01-06T19:28:07.899Z,7.75
2019-01-06T19:31:05.497Z,9.98
2019-01-06T19:34:11.267Z,9.40
2019-01-06T19:37:02.232Z,9.18
2019-01-06T19:40:07.899Z,10.35
2019-01-06T19:42:54.142Z,8.83
2019-01-06T19:45:34.967Z,13.65
2019-01-06T19:48:16.199Z,10.23
2019-01-06T19:51:19.474Z,10.98
2019-01-06T19:54:05.171Z,11.80
2019-01-06T19:56:59.499Z,11.68
2019-01-06T19:59:46.237Z,10.98
2019-01-06T20:02:31.998Z,10.20
2019-01-06T20:05:18.348Z,12.33
2019-01-06T20:08:01.146Z,11.33
2019-01-06T20:10:47.546Z,12.45
2019-01-06T20:13:33.856Z,10.10
2019-01-06T20:16:21.695Z,10.00
2019-01-06T20:19:08.412Z,10.82
2019-01-06T20:21:59.645Z,9.93
2019-01-06T20:24:55.645Z,11.95
2019-01-06T20:27:41.055Z,60.80
2019-01-06T20:30:34.221Z,13.95
2019-01-06T20:33:15.530Z,12.93
2019-01-06T20:36:02.335Z,12.63
2019-01-06T20:38:48.832Z,12.43
2019-01-06T20:41:35.371Z,13.60
2019-01-06T20:44:32.671Z,12.93
2019-01-06T20:47:23.685Z,12.70
2019-01-06T20:50:14.858Z,11.05
2019-01-06T20:52:57.004Z,14.38
2019-01-06T20:56:03.314Z,14.90
2019-01-06T20:59:03.910Z,13.55
2019-01-06T21:01:57.878Z,14.18
2019-01-06T21:04:46.031Z,11.60
2019-01-06T21:07:29.649Z,12.65
2019-01-06T21:10:16.904Z,13.85
2019-01-06T21:13:01.791Z,14.13
2019-01-06T21:15:48.400Z,13.93
2019-01-06T21:18:46.027Z,12.63
2019-01-06T21:21:39.435Z,14.03
2019-01-06T21:24:42.551Z,13.00
2019-01-06T21:27:28.844Z,11.83
2019-01-06T21:30:17.670Z,13.50
2019-01-06T21:33:20.460Z,11.93
2019-01-06T21:36:06.575Z,12.28
2019-01-06T21:38:54.517Z,12.85
2019-01-06T21:41:57.506Z,12.60
2019-01-06T21:44:57.647Z,11.75
2019-01-06T21:47:45.691Z,11.28
2019-01-06T21:50:36.529Z,13.72
2019-01-06T21:53:23.605Z,12.18
2019-01-06T21:56:11.736Z,13.10
2019-01-06T21:59:03.220Z,11.97
2019-01-06T22:02:01.872Z,12.13
2019-01-06T22:04:52.839Z,12.63
2019-01-06T22:07:39.729Z,12.13
2019-01-06T22:10:19.906Z,12.50
2019-01-06T22:13:06.586Z,13.08
2019-01-06T22:16:09.603Z,13.35
2019-01-06T22:18:56.331Z,11.85
2019-01-06T22:21:42.887Z,12.60
2019-01-06T22:24:30.450Z,12.65
2019-01-06T22:27:13.118Z,13.95
2019-01-06T22:30:10.061Z,13.20
2019-01-06T22:33:05.529Z,13.10
2019-01-06T22:35:45.583Z,12.23
2019-01-06T22:38:36.302Z,13.20
2019-01-06T22:41:42.055Z,13.90
2019-01-06T22:44:48.237Z,13.55
2019-01-06T22:47:38.530Z,13.68
2019-01-06T22:50:38.980Z,13.62
2019-01-06T22:53:27.038Z,14.13
2019-01-06T22:56:27.151Z,12.73
2019-01-06T22:59:15.233Z,11.68
2019-01-06T23:02:21.564Z,13.90
2019-01-06T23:05:03.442Z,14.30
2019-01-06T23:07:58.368Z,14.43
2019-01-06T23:10:42.091Z,14.10
2019-01-06T23:13:23.355Z,14.53
2019-01-06T23:16:23.299Z,14.73
2019-01-06T23:19:09.853Z,13.72
2019-01-06T23:22:15.972Z,12.37
2019-01-06T23:25:04.059Z,14.75
2019-01-06T23:27:50.407Z,12.63
2019-01-06T23:30:47.450Z,13.70
2019-01-06T23:33:34.156Z,14.87
2019-01-06T23:36:25.324Z,14.07
2019-01-06T23:39:16.369Z,14.28
2019-01-06T23:42:02.951Z,13.60
2019-01-06T23:44:50.938Z,15.40
2019-01-06T23:47:47.963Z,16.02
2019-01-06T23:50:27.534Z,13.68
2019-01-06T23:53:21.729Z,15.60
2019-01-06T23:56:08.603Z,15.48
2019-01-06T23:58:55.364Z,15.20
